Time;durP1;ratioP1;P1;durP2;ratioP2;P2;SDS_P1;SDS_P2;PMS_P1;PMS_P2;Temp;Humidity;BMP_temperature;BMP_pressure;BME280_temperature;BME280_humidity;BME280_pressure;Samples;Min_cycle;Max_cycle;Signal;HPM_P1;HPM_P2
2020/12/14 00:00:29;;;;;;;2.63;0.70;;;24.80;55.90;;;;;;5084886;28;20027;-74
2020/12/14 00:02:59;;;;;;;2.30;0.63;;;24.80;55.20;;;;;;5083856;28;20027;-67
2020/12/14 00:05:29;;;;;;;12.35;3.25;;;24.70;55.30;;;;;;5080758;28;20032;-71
2020/12/14 00:07:56;;;;;;;8.68;2.35;;;24.70;55.40;;;;;;5084796;28;20181;-71
2020/12/14 00:10:23;;;;;;;2.75;1.05;;;24.70;55.20;;;;;;5075744;28;21026;-67
2020/12/14 00:12:50;;;;;;;3.42;1.58;;;24.60;55.00;;;;;;5078769;28;20073;-67
2020/12/14 00:15:17;;;;;;;3.22;1.30;;;24.60;54.60;;;;;;5077772;28;20056;-66
2020/12/14 00:17:44;;;;;;;5.97;1.40;;;24.50;54.40;;;;;;5082517;28;20527;-70
2020/12/14 00:20:12;;;;;;;4.82;1.38;;;24.40;54.20;;;;;;5058018;28;20031;-70
2020/12/14 00:22:39;;;;;;;6.40;1.80;;;24.30;54.00;;;;;;5080791;28;20489;-71
2020/12/14 00:25:06;;;;;;;2.22;1.25;;;24.30;53.70;;;;;;5084924;28;20474;-73
2020/12/14 00:27:33;;;;;;;5.70;1.20;;;24.20;53.30;;;;;;5082233;28;20047;-73
2020/12/14 00:29:59;;;;;;;3.30;1.55;;;24.20;53.10;;;;;;5084505;28;20048;-72
2020/12/14 00:32:26;;;;;;;1.80;1.15;;;24.10;52.90;;;;;;5081430;28;20096;-74
2020/12/14 00:34:54;;;;;;;4.50;1.27;;;24.10;52.50;;;;;;5082486;28;20028;-71
2020/12/14 00:37:21;;;;;;;3.70;1.10;;;24.00;52.30;;;;;;5083857;28;20028;-72
2020/12/14 00:39:48;;;;;;;2.20;1.30;;;24.00;52.10;;;;;;5087533;28;20028;-72
2020/12/14 00:42:15;;;;;;;3.00;1.00;;;23.90;51.80;;;;;;5064804;28;20449;-71
2020/12/14 00:44:42;;;;;;;3.15;1.30;;;23.80;51.80;;;;;;5068198;28;20051;-70
2020/12/14 00:47:09;;;;;;;2.78;1.08;;;23.80;51.50;;;;;;5084301;28;20035;-71
2020/12/14 00:49:36;;;;;;;2.78;0.95;;;23.80;51.20;;;;;;5089766;28;20024;-71
2020/12/14 00:52:04;;;;;;;2.90;1.30;;;23.80;51.10;;;;;;5085065;28;20023;-70
2020/12/14 00:54:32;;;;;;;1.58;0.90;;;23.70;50.80;;;;;;5086754;28;20123;-72
2020/12/14 00:57:00;;;;;;;2.75;1.08;;;23.70;50.80;;;;;;5053992;28;20110;-71
2020/12/14 00:59:27;;;;;;;1.55;0.90;;;23.70;50.60;;;;;;5065532;28;20304;-70
2020/12/14 01:01:55;;;;;;;1.80;1.08;;;23.70;50.20;;;;;;5086189;28;20115;-71
2020/12/14 01:04:22;;;;;;;3.28;0.95;;;23.60;50.10;;;;;;5089349;28;20028;-69
2020/12/14 01:06:53;;;;;;;1.63;0.93;;;23.60;49.90;;;;;;5082880;28;20423;-69
2020/12/14 01:09:21;;;;;;;2.17;0.93;;;23.60;50.00;;;;;;5085990;28;20024;-69
2020/12/14 01:11:48;;;;;;;1.52;0.77;;;23.60;50.20;;;;;;5089524;28;20063;-69
2020/12/14 01:14:15;;;;;;;2.10;1.00;;;23.60;49.50;;;;;;5084929;28;20032;-70
2020/12/14 01:16:42;;;;;;;2.95;1.20;;;23.60;49.40;;;;;;5087166;28;20063;-70
2020/12/14 01:19:09;;;;;;;1.52;0.88;;;23.60;49.40;;;;;;5085210;28;20114;-70
2020/12/14 01:21:36;;;;;;;2.55;1.27;;;23.60;49.20;;;;;;5088364;28;20035;-69
2020/12/14 01:24:03;;;;;;;1.65;1.05;;;23.60;49.20;;;;;;5086465;28;20059;-68
2020/12/14 01:26:32;;;;;;;1.48;1.00;;;23.60;48.80;;;;;;5084430;28;20124;-68
2020/12/14 01:28:59;;;;;;;0.50;0.50;;;23.60;48.70;;;;;;5084379;28;20024;-68
2020/12/14 01:31:27;;;;;;;2.08;0.98;;;23.60;48.70;;;;;;5084901;28;20028;-68
2020/12/14 01:33:54;;;;;;;2.08;1.10;;;23.60;48.50;;;;;;5083348;28;20043;-68
2020/12/14 01:36:21;;;;;;;1.90;0.73;;;23.60;48.50;;;;;;5063972;28;20036;-70
2020/12/14 01:38:48;;;;;;;1.75;1.00;;;23.50;48.90;;;;;;5085871;28;20289;-68
2020/12/14 01:41:15;;;;;;;1.55;0.90;;;23.60;48.30;;;;;;5082578;28;20111;-67
2020/12/14 01:43:42;;;;;;;1.65;1.15;;;23.60;48.10;;;;;;5081568;28;20024;-68
2020/12/14 01:46:12;;;;;;;1.35;1.05;;;23.50;48.10;;;;;;5089278;28;20479;-68
2020/12/14 01:48:39;;;;;;;1.00;0.70;;;23.60;48.10;;;;;;5083968;28;20028;-69
2020/12/14 01:51:08;;;;;;;1.45;0.80;;;23.60;47.90;;;;;;5087643;28;20028;-70
2020/12/14 01:53:36;;;;;;;0.60;0.50;;;23.60;47.80;;;;;;5087677;28;20158;-69
2020/12/14 01:56:04;;;;;;;1.33;0.60;;;23.60;47.70;;;;;;5087934;28;20039;-68
2020/12/14 01:58:32;;;;;;;1.70;0.80;;;23.60;47.80;;;;;;5087770;28;20146;-68
2020/12/14 02:01:02;;;;;;;0.50;0.50;;;23.60;47.70;;;;;;5085509;28;20119;-68
2020/12/14 02:03:29;;;;;;;1.90;0.65;;;23.60;47.60;;;;;;5088479;28;20282;-69
2020/12/14 02:05:56;;;;;;;0.75;0.70;;;23.70;47.40;;;;;;5069870;28;20054;-75
2020/12/14 02:08:23;;;;;;;0.82;0.63;;;23.60;47.60;;;;;;5091193;28;20024;-71
2020/12/14 02:10:50;;;;;;;1.40;1.05;;;23.60;47.60;;;;;;5084754;28;20029;-73
2020/12/14 02:13:18;;;;;;;1.80;1.08;;;23.70;48.10;;;;;;5091153;28;20083;-72
2020/12/14 02:15:45;;;;;;;2.05;0.50;;;23.80;48.30;;;;;;5090410;28;20039;-73
2020/12/14 02:18:12;;;;;;;0.73;0.50;;;23.90;48.60;;;;;;5091092;28;20099;-65
2020/12/14 02:20:39;;;;;;;2.13;0.93;;;24.00;48.60;;;;;;5087074;28;20043;-68
2020/12/14 02:23:05;;;;;;;0.88;0.63;;;24.20;48.60;;;;;;5095296;28;20052;-78
2020/12/14 02:25:32;;;;;;;0.60;0.60;;;24.20;48.50;;;;;;5087908;28;20036;-78
2020/12/14 02:27:59;;;;;;;0.55;0.55;;;24.40;48.60;;;;;;5090243;28;20024;-78
2020/12/14 02:30:26;;;;;;;0.82;0.70;;;24.50;48.50;;;;;;5070760;28;20031;-78
2020/12/14 02:32:53;;;;;;;0.90;0.90;;;24.50;48.40;;;;;;5069829;28;20036;-76
2020/12/14 02:35:20;;;;;;;0.88;0.68;;;24.60;48.50;;;;;;5067920;28;20028;-75
2020/12/14 02:37:47;;;;;;;0.60;0.60;;;24.70;48.40;;;;;;5088982;28;20194;-75
2020/12/14 02:40:17;;;;;;;0.60;0.60;;;24.80;48.40;;;;;;5086530;28;20032;-76
2020/12/14 02:42:44;;;;;;;0.57;0.50;;;24.80;48.30;;;;;;5088071;28;20016;-75
2020/12/14 02:45:11;;;;;;;0.75;0.50;;;24.80;48.30;;;;;;5088736;28;20031;-74
2020/12/14 02:47:38;;;;;;;0.93;0.70;;;24.90;48.40;;;;;;5088456;28;20050;-76
2020/12/14 02:50:05;;;;;;;0.90;0.70;;;25.00;48.30;;;;;;5091781;28;20028;-75
2020/12/14 02:52:32;;;;;;;1.05;0.63;;;25.00;48.30;;;;;;5088124;28;20031;-79
2020/12/14 02:54:59;;;;;;;1.02;0.60;;;25.10;48.40;;;;;;5089402;28;20074;-75
2020/12/14 02:57:26;;;;;;;1.23;0.80;;;25.10;48.30;;;;;;5087220;28;20032;-74
2020/12/14 02:59:53;;;;;;;0.88;0.68;;;25.20;48.30;;;;;;5087950;28;20027;-74
2020/12/14 03:02:20;;;;;;;0.75;0.70;;;25.20;48.30;;;;;;5091220;28;20489;-74
2020/12/14 03:04:47;;;;;;;0.90;0.70;;;25.20;48.20;;;;;;5087902;28;21427;-74
2020/12/14 03:07:14;;;;;;;1.27;1.15;;;25.30;48.30;;;;;;5084406;28;20016;-74
2020/12/14 03:09:41;;;;;;;0.80;0.80;;;25.40;48.30;;;;;;5090885;28;20016;-74
2020/12/14 03:12:08;;;;;;;2.95;0.88;;;25.40;48.20;;;;;;5084987;28;20123;-74
2020/12/14 03:14:35;;;;;;;4.25;0.70;;;25.40;48.30;;;;;;5087617;28;20091;-75
2020/12/14 03:17:02;;;;;;;0.68;0.60;;;25.50;48.30;;;;;;5085522;28;20091;-75
2020/12/14 03:19:29;;;;;;;1.25;1.15;;;25.50;48.20;;;;;;5087149;28;20036;-74
2020/12/14 03:21:56;;;;;;;1.30;1.20;;;25.50;48.20;;;;;;5087922;28;20654;-75
2020/12/14 03:24:23;;;;;;;1.77;1.67;;;25.60;48.30;;;;;;5084556;28;20040;-74
2020/12/14 03:26:51;;;;;;;0.70;0.70;;;25.60;48.30;;;;;;5090453;28;20051;-75
2020/12/14 03:29:19;;;;;;;1.08;0.70;;;25.70;48.20;;;;;;5082617;28;20089;-68
2020/12/14 03:31:46;;;;;;;0.70;0.70;;;25.70;48.30;;;;;;5089061;28;20026;-74
2020/12/14 03:34:13;;;;;;;0.90;0.70;;;25.80;48.30;;;;;;5093760;28;20110;-69
2020/12/14 03:36:40;;;;;;;0.70;0.70;;;25.70;48.30;;;;;;5089449;28;20500;-68
2020/12/14 03:39:07;;;;;;;0.52;0.52;;;25.80;48.30;;;;;;5085548;28;20035;-75
2020/12/14 03:41:34;;;;;;;0.57;0.50;;;25.80;48.30;;;;;;5085941;28;20154;-74
2020/12/14 03:44:02;;;;;;;0.73;0.60;;;25.80;48.40;;;;;;5079978;28;20052;-75
2020/12/14 03:46:33;;;;;;;0.50;0.50;;;25.80;48.40;;;;;;5082570;28;20028;-74
2020/12/14 03:49:01;;;;;;;0.80;0.80;;;25.90;48.40;;;;;;5085158;28;20464;-75
2020/12/14 03:51:31;;;;;;;0.85;0.82;;;25.90;48.30;;;;;;5089546;28;20040;-68
2020/12/14 03:53:58;;;;;;;0.77;0.73;;;25.90;48.40;;;;;;5090587;28;20043;-75
2020/12/14 03:56:25;;;;;;;0.65;0.60;;;26.00;48.50;;;;;;5092001;28;20028;-76
2020/12/14 03:58:54;;;;;;;0.50;0.50;;;26.10;48.40;;;;;;5091864;28;20384;-75
2020/12/14 04:01:31;;;;;;;0.63;0.63;;;26.10;48.30;;;;;;5088738;28;20516;-69
2020/12/14 04:03:58;;;;;;;0.50;0.50;;;26.10;48.40;;;;;;5061730;28;20062;-69
2020/12/14 04:06:27;;;;;;;0.50;0.50;;;26.10;48.20;;;;;;5086935;28;20091;-67
2020/12/14 04:08:55;;;;;;;0.68;0.60;;;26.10;48.40;;;;;;5087921;28;20032;-69
2020/12/14 04:11:22;;;;;;;0.60;0.60;;;26.20;48.40;;;;;;5070674;28;20028;-74
2020/12/14 04:13:50;;;;;;;1.27;0.75;;;26.20;48.30;;;;;;5081696;28;20028;-75
2020/12/14 04:16:17;;;;;;;1.15;0.75;;;26.30;48.30;;;;;;5083705;28;20678;-69
2020/12/14 04:18:44;;;;;;;0.60;0.60;;;26.30;48.30;;;;;;5084051;27;20055;-69
2020/12/14 04:21:11;;;;;;;0.60;0.60;;;26.30;48.30;;;;;;5081350;28;20027;-75
2020/12/14 04:23:38;;;;;;;0.50;0.50;;;26.40;48.20;;;;;;5082099;28;20043;-75
2020/12/14 04:26:06;;;;;;;0.60;0.60;;;26.40;48.20;;;;;;5083850;28;20496;-68
2020/12/14 04:28:33;;;;;;;0.50;0.50;;;26.50;48.30;;;;;;5086245;28;20024;-72
2020/12/14 04:31:03;;;;;;;0.50;0.50;;;26.50;48.20;;;;;;5085696;28;20060;-72
2020/12/14 04:33:30;;;;;;;0.60;0.60;;;26.50;48.10;;;;;;5086920;28;20400;-72
2020/12/14 04:35:57;;;;;;;0.40;0.40;;;26.50;48.10;;;;;;5061469;28;20035;-72
2020/12/14 04:38:24;;;;;;;0.50;0.50;;;26.60;48.10;;;;;;5084173;28;20502;-72
2020/12/14 04:40:52;;;;;;;0.60;0.60;;;26.60;48.10;;;;;;5075509;28;20034;-76
2020/12/14 04:43:20;;;;;;;0.57;0.47;;;26.60;48.10;;;;;;5081757;28;20032;-72
2020/12/14 04:45:50;;;;;;;1.52;0.80;;;26.60;48.50;;;;;;5078030;28;20107;-72
2020/12/14 04:48:17;;;;;;;0.45;0.45;;;26.60;48.00;;;;;;5058818;28;20054;-72
2020/12/14 04:50:45;;;;;;;0.60;0.50;;;26.70;48.10;;;;;;5080751;28;20510;-73
2020/12/14 04:53:12;;;;;;;1.00;0.90;;;26.60;48.00;;;;;;5081395;28;20101;-72
2020/12/14 04:55:39;;;;;;;0.40;0.40;;;26.70;48.20;;;;;;5081302;28;20032;-73
2020/12/14 04:58:06;;;;;;;1.02;0.77;;;26.70;48.10;;;;;;5083788;28;20028;-72
2020/12/14 05:00:35;;;;;;;0.60;0.60;;;26.70;48.00;;;;;;5079039;28;20082;-74
2020/12/14 05:03:02;;;;;;;0.73;0.60;;;26.80;48.20;;;;;;5084808;28;20073;-72
2020/12/14 05:05:30;;;;;;;1.15;0.60;;;26.80;48.00;;;;;;5061593;28;20341;-71
2020/12/14 05:07:57;;;;;;;0.50;0.50;;;26.80;48.00;;;;;;5061172;28;20040;-72
2020/12/14 05:10:29;;;;;;;1.13;0.60;;;26.80;48.00;;;;;;5079902;28;20028;-71
2020/12/14 05:12:56;;;;;;;0.50;0.50;;;26.90;47.90;;;;;;5080585;28;20024;-72
2020/12/14 05:15:24;;;;;;;0.40;0.40;;;26.90;48.00;;;;;;5081764;28;20071;-73
2020/12/14 05:17:54;;;;;;;0.47;0.45;;;26.90;47.90;;;;;;5081326;28;20035;-72
2020/12/14 05:20:21;;;;;;;1.63;0.50;;;26.90;47.90;;;;;;5063513;28;20036;-72
2020/12/14 05:22:56;;;;;;;0.52;0.52;;;27.00;48.00;;;;;;5077959;28;20023;-70
2020/12/14 05:25:23;;;;;;;0.40;0.40;;;27.00;48.00;;;;;;5082325;28;20574;-72
2020/12/14 05:28:05;;;;;;;1.20;0.77;;;27.00;47.90;;;;;;5084734;28;20076;-69
2020/12/14 05:30:36;;;;;;;1.45;0.90;;;27.00;46.90;;;;;;5084983;28;20028;-67
2020/12/14 05:33:03;;;;;;;2.63;1.10;;;26.90;46.10;;;;;;5041567;28;20137;-69
2020/12/14 05:35:51;;;;;;;3.47;0.93;;;26.70;45.80;;;;;;5083383;28;20028;-75
2020/12/14 05:38:25;;;;;;;1.60;1.00;;;26.70;45.60;;;;;;5080407;28;20026;-69
2020/12/14 05:41:05;;;;;;;2.40;1.30;;;26.60;45.50;;;;;;5081355;28;20028;-66
2020/12/14 05:43:33;;;;;;;2.70;1.10;;;26.60;45.80;;;;;;5076342;28;20380;-68
2020/12/14 05:46:17;;;;;;;1.83;1.15;;;26.60;45.50;;;;;;5082280;28;20035;-68
2020/12/14 05:48:44;;;;;;;3.13;1.30;;;26.60;45.10;;;;;;5059231;28;20116;-69
2020/12/14 05:51:21;;;;;;;2.03;1.42;;;26.60;45.20;;;;;;5084203;28;20389;-65
2020/12/14 05:53:53;;;;;;;3.35;1.33;;;26.60;45.30;;;;;;5079208;28;20111;-67
2020/12/14 05:56:20;;;;;;;1.25;1.13;;;26.70;45.60;;;;;;5064600;28;20044;-67
2020/12/14 05:58:52;;;;;;;4.57;1.30;;;26.80;44.80;;;;;;5076749;28;20052;-67
2020/12/14 06:01:21;;;;;;;2.53;1.27;;;26.80;44.50;;;;;;5082496;28;20040;-66
2020/12/14 06:03:49;;;;;;;1.33;0.90;;;26.70;44.70;;;;;;5078021;28;20334;-66
2020/12/14 06:06:16;;;;;;;1.40;1.23;;;26.80;44.60;;;;;;5080371;28;20159;-65
2020/12/14 06:08:46;;;;;;;2.13;1.02;;;26.80;44.10;;;;;;5077974;28;20507;-67
2020/12/14 06:11:18;;;;;;;2.72;0.95;;;26.50;43.60;;;;;;5079436;28;20268;-68
2020/12/14 06:13:53;;;;;;;2.53;1.10;;;26.30;44.80;;;;;;5059413;28;20120;-69
2020/12/14 06:16:29;;;;;;;2.63;0.90;;;26.40;45.10;;;;;;5079949;28;20340;-69
2020/12/14 06:18:56;;;;;;;1.67;0.90;;;26.40;44.50;;;;;;5059529;28;20376;-71
2020/12/14 06:21:41;;;;;;;2.25;0.85;;;26.40;44.30;;;;;;5080069;28;20032;-66
2020/12/14 06:24:20;;;;;;;1.85;0.85;;;26.40;44.70;;;;;;5077455;28;20070;-69
2020/12/14 06:26:48;;;;;;;2.17;0.73;;;26.40;44.40;;;;;;5079701;28;20609;-68
2020/12/14 06:29:32;;;;;;;2.88;0.90;;;26.30;44.50;;;;;;5081195;28;20031;-69
2020/12/14 06:32:00;;;;;;;1.75;1.08;;;26.50;44.80;;;;;;5079764;28;20024;-67
2020/12/14 06:34:33;;;;;;;2.30;0.82;;;26.60;44.30;;;;;;5077068;28;20028;-66
2020/12/14 06:37:04;;;;;;;0.88;0.80;;;26.60;43.00;;;;;;5079545;28;20532;-65
2020/12/14 06:39:40;;;;;;;;;;;26.40;42.70;;;;;;5080531;28;20032;-65
2020/12/14 06:42:10;;;;;;;0.93;0.60;;;26.30;43.10;;;;;;5078767;28;20368;-64
2020/12/14 06:45:02;;;;;;;0.88;0.77;;;26.20;43.20;;;;;;5080472;28;20032;-68
2020/12/14 06:47:40;;;;;;;1.48;0.85;;;26.20;43.90;;;;;;5080279;28;20028;-66
2020/12/14 06:50:54;;;;;;;1.38;0.82;;;26.40;43.80;;;;;;5078586;28;20040;-66
2020/12/14 06:53:43;;;;;;;1.10;1.00;;;26.40;43.10;;;;;;4996962;28;20025;-65
2020/12/14 06:56:16;;;;;;;0.60;0.60;;;26.40;43.20;;;;;;4994443;28;20052;-66
2020/12/14 06:58:46;;;;;;;1.20;0.73;;;26.40;42.80;;;;;;4997183;28;20117;-65
2020/12/14 07:01:31;;;;;;;4.65;2.20;;;26.10;42.60;;;;;;4993875;28;20355;-69
2020/12/14 07:03:59;;;;;;;28.95;19.10;;;26.10;43.90;;;;;;4995805;28;20073;-69
2020/12/14 07:06:27;;;;;;;69.95;54.38;;;26.30;44.90;;;;;;4992447;28;20124;-65
2020/12/14 07:08:55;;;;;;;88.00;71.47;;;26.30;42.50;;;;;;4994719;28;20048;-66
2020/12/14 07:11:24;;;;;;;86.43;71.88;;;26.30;44.00;;;;;;4993800;28;20030;-65
2020/12/14 07:13:52;;;;;;;85.20;69.65;;;26.40;43.30;;;;;;4997286;28;20041;-66
2020/12/14 07:16:30;;;;;;;82.22;68.05;;;26.50;43.40;;;;;;4996555;28;20049;-68
2020/12/14 07:18:57;;;;;;;79.88;65.00;;;26.40;42.40;;;;;;4997601;28;20850;-67
2020/12/14 07:21:27;;;;;;;82.90;67.82;;;26.30;42.50;;;;;;4994679;28;20042;-65
2020/12/14 07:23:57;;;;;;;87.32;65.70;;;26.30;42.50;;;;;;4978438;28;20568;-65
2020/12/14 07:26:25;;;;;;;79.28;65.60;;;26.20;42.20;;;;;;5009344;28;20040;-66
2020/12/14 07:28:54;;;;;;;74.88;63.10;;;26.10;42.40;;;;;;5076102;28;20059;-68
2020/12/14 07:31:25;;;;;;;83.43;62.80;;;26.10;42.50;;;;;;5079701;28;20023;-66
2020/12/14 07:33:58;;;;;;;73.47;61.05;;;26.10;42.70;;;;;;5044154;28;20055;-66
2020/12/14 07:36:29;;;;;;;72.25;58.92;;;26.10;42.60;;;;;;5079467;28;20123;-68
2020/12/14 07:38:57;;;;;;;67.50;57.67;;;26.10;42.40;;;;;;5075687;28;20024;-67
2020/12/14 07:41:26;;;;;;;64.40;55.15;;;26.10;43.30;;;;;;5078805;28;20040;-67
2020/12/14 07:43:55;;;;;;;64.97;51.70;;;26.30;42.90;;;;;;5077182;28;20031;-68
2020/12/14 07:46:26;;;;;;;63.20;53.17;;;26.30;42.50;;;;;;5079414;28;20523;-65
2020/12/14 07:48:52;;;;;;;;;;;26.40;43.20;;;;;;5081673;28;20036;-65
2020/12/14 07:51:20;;;;;;;62.47;49.08;;;26.30;42.00;;;;;;5079706;28;19919;-65
2020/12/14 07:53:50;;;;;;;58.20;48.30;;;26.30;41.90;;;;;;5075895;28;20035;-68
2020/12/14 07:56:18;;;;;;;53.65;43.72;;;26.30;42.50;;;;;;5078658;28;20143;-68
2020/12/14 07:58:49;;;;;;;51.13;43.88;;;26.40;42.40;;;;;;5075836;28;20526;-70
2020/12/14 08:01:20;;;;;;;51.47;44.33;;;26.50;42.20;;;;;;5079955;28;20036;-67
2020/12/14 08:03:49;;;;;;;50.43;43.73;;;26.70;42.60;;;;;;5076436;28;20028;-64
2020/12/14 08:06:19;;;;;;;50.75;42.33;;;26.80;42.50;;;;;;5081305;28;20464;-67
2020/12/14 08:08:50;;;;;;;51.60;41.25;;;26.90;42.10;;;;;;5079412;28;20451;-67
2020/12/14 08:11:18;;;;;;;44.00;37.75;;;27.00;42.10;;;;;;5078735;28;20125;-67
2020/12/14 08:13:51;;;;;;;50.05;39.15;;;27.00;41.60;;;;;;5061181;28;20578;-66
2020/12/14 08:16:20;;;;;;;46.13;39.47;;;27.00;41.70;;;;;;5082741;28;20036;-68
2020/12/14 08:18:50;;;;;;;45.33;37.65;;;27.00;41.40;;;;;;5058699;28;20181;-68
2020/12/14 08:21:27;;;;;;;39.80;35.33;;;27.00;41.30;;;;;;5079877;28;20020;-67
2020/12/14 08:23:55;;;;;;;42.67;34.88;;;27.10;41.10;;;;;;5076189;28;20030;-68
2020/12/14 08:26:30;;;;;;;42.53;34.80;;;27.10;41.00;;;;;;5078532;28;20488;-68
2020/12/14 08:28:59;;;;;;;37.03;32.85;;;27.00;40.90;;;;;;5075481;28;20452;-67
2020/12/14 08:31:26;;;;;;;40.28;32.63;;;27.00;41.00;;;;;;5079305;28;20028;-68
2020/12/14 08:33:56;;;;;;;41.58;31.25;;;27.00;40.70;;;;;;5078721;28;20024;-69
2020/12/14 08:36:24;;;;;;;40.55;32.63;;;27.00;41.40;;;;;;5078806;28;20043;-68
2020/12/14 08:38:52;;;;;;;47.08;35.80;;;27.00;40.50;;;;;;5079012;28;20028;-66
2020/12/14 08:41:23;;;;;;;51.85;35.50;;;27.00;40.80;;;;;;5076503;28;20641;-67
2020/12/14 08:43:53;;;;;;;;;;;27.00;40.80;;;;;;5081636;28;20107;-67
2020/12/14 08:46:27;;;;;;;44.00;32.33;;;27.00;40.60;;;;;;5075024;28;19923;-70
2020/12/14 08:49:02;;;;;;;43.83;32.65;;;27.00;40.70;;;;;;5077636;28;21310;-71
2020/12/14 08:51:31;;;;;;;44.33;31.85;;;27.00;40.80;;;;;;5057152;28;20606;-69
2020/12/14 08:54:12;;;;;;;43.70;33.17;;;27.00;40.70;;;;;;5077674;28;20077;-69
2020/12/14 08:56:39;;;;;;;42.85;31.42;;;27.00;40.70;;;;;;5076834;28;20063;-69
2020/12/14 08:59:16;;;;;;;39.95;29.58;;;27.00;40.60;;;;;;5079619;28;20151;-69
2020/12/14 09:02:00;;;;;;;40.55;30.75;;;26.90;40.40;;;;;;5077373;28;20050;-69
2020/12/14 09:04:32;;;;;;;38.15;27.52;;;26.90;40.40;;;;;;5080229;28;20043;-69
2020/12/14 09:06:59;;;;;;;36.90;26.70;;;26.90;40.40;;;;;;5080586;28;20110;-70
2020/12/14 09:09:38;;;;;;;35.33;26.02;;;26.90;40.70;;;;;;5082864;28;20028;-70
2020/12/14 09:12:13;;;;;;;37.58;27.25;;;27.00;41.10;;;;;;5080979;28;20028;-69
2020/12/14 09:14:40;;;;;;;37.25;25.55;;;27.00;41.30;;;;;;5083494;28;20066;-69
2020/12/14 09:17:14;;;;;;;30.83;24.02;;;27.00;41.60;;;;;;5080444;28;20036;-69
2020/12/14 09:19:48;;;;;;;36.45;25.27;;;27.00;41.70;;;;;;5065183;28;20112;-71
2020/12/14 09:22:20;;;;;;;31.48;23.13;;;27.00;41.80;;;;;;5057934;28;20383;-70
2020/12/14 09:24:47;;;;;;;31.38;23.55;;;27.00;42.00;;;;;;5079504;28;20062;-70
2020/12/14 09:27:14;;;;;;;32.47;22.98;;;27.10;42.10;;;;;;5077603;28;20032;-70
2020/12/14 09:29:42;;;;;;;34.42;23.95;;;27.00;42.20;;;;;;5079409;28;20036;-71
2020/12/14 09:32:13;;;;;;;29.05;22.75;;;27.00;42.80;;;;;;5075042;28;20032;-71
2020/12/14 09:34:41;;;;;;;30.70;20.98;;;27.10;43.00;;;;;;5077628;28;20032;-71
2020/12/14 09:37:13;;;;;;;30.98;22.10;;;27.10;43.60;;;;;;5075498;28;20154;-72
2020/12/14 09:39:41;;;;;;;27.20;21.85;;;27.10;43.60;;;;;;5078444;28;20077;-73
2020/12/14 09:42:08;;;;;;;30.17;20.15;;;27.10;44.00;;;;;;5077297;28;20060;-72
2020/12/14 09:44:35;;;;;;;28.35;21.30;;;27.10;44.30;;;;;;5079824;28;20089;-73
2020/12/14 09:47:06;;;;;;;31.85;20.58;;;27.10;44.70;;;;;;5077546;28;20620;-73
2020/12/14 09:49:33;;;;;;;24.55;18.98;;;27.20;45.00;;;;;;5079772;28;20035;-73
2020/12/14 09:52:02;;;;;;;28.15;18.90;;;27.10;45.20;;;;;;5079747;28;20024;-73
2020/12/14 09:54:40;;;;;;;28.48;19.80;;;27.10;45.50;;;;;;5077925;28;20036;-73
2020/12/14 09:57:07;;;;;;;29.80;19.30;;;27.20;45.80;;;;;;5079852;28;20032;-73
2020/12/14 09:59:34;;;;;;;25.55;18.80;;;27.10;45.90;;;;;;5078256;28;20043;-74
2020/12/14 10:02:01;;;;;;;23.70;17.35;;;27.20;46.20;;;;;;5079904;28;20031;-74
2020/12/14 10:04:30;;;;;;;22.52;17.10;;;27.10;46.30;;;;;;5082614;28;20049;-74
2020/12/14 10:07:00;;;;;;;23.45;17.70;;;27.20;46.60;;;;;;5066203;28;20070;-74
2020/12/14 10:09:28;;;;;;;21.83;16.33;;;27.20;46.80;;;;;;5080866;28;20329;-73
2020/12/14 10:11:56;;;;;;;22.17;16.65;;;27.20;47.00;;;;;;5084028;28;20160;-73
2020/12/14 10:14:23;;;;;;;20.83;15.48;;;27.20;46.90;;;;;;5080716;28;20063;-74
2020/12/14 10:16:53;;;;;;;23.15;17.40;;;27.20;46.90;;;;;;5081164;28;20503;-73
2020/12/14 10:19:20;;;;;;;22.60;16.80;;;27.20;47.10;;;;;;5081050;28;20035;-72
2020/12/14 10:21:47;;;;;;;20.15;14.98;;;27.20;47.40;;;;;;5082695;28;20512;-73
2020/12/14 10:24:15;;;;;;;21.58;15.50;;;27.20;47.30;;;;;;5079082;28;20047;-73
2020/12/14 10:26:42;;;;;;;20.15;16.17;;;27.10;47.30;;;;;;5082114;28;20138;-73
2020/12/14 10:29:09;;;;;;;19.55;14.98;;;27.20;47.40;;;;;;5079325;28;20028;-73
2020/12/14 10:31:36;;;;;;;18.48;15.27;;;27.20;47.60;;;;;;5084749;28;20024;-73
2020/12/14 10:34:03;;;;;;;17.13;13.88;;;27.20;47.70;;;;;;5085280;28;20044;-73
2020/12/14 10:36:30;;;;;;;17.58;14.43;;;27.20;47.70;;;;;;5082817;28;20044;-72
2020/12/14 10:38:57;;;;;;;18.52;13.98;;;27.30;47.80;;;;;;5081644;28;20042;-72
2020/12/14 10:41:24;;;;;;;18.88;14.30;;;27.30;48.40;;;;;;5083672;28;20035;-73
2020/12/14 10:43:51;;;;;;;15.55;13.15;;;27.20;47.70;;;;;;5082860;28;20062;-72
2020/12/14 10:46:23;;;;;;;20.75;13.60;;;27.20;47.70;;;;;;5080291;28;20036;-72
2020/12/14 10:48:50;;;;;;;16.90;13.50;;;27.20;47.80;;;;;;5084855;28;20295;-73
2020/12/14 10:51:17;;;;;;;15.65;12.88;;;27.20;47.90;;;;;;5078849;28;20442;-73
2020/12/14 10:53:47;;;;;;;15.88;12.30;;;27.20;47.90;;;;;;5084270;28;20463;-73
2020/12/14 10:56:16;;;;;;;17.02;13.63;;;27.20;48.00;;;;;;5079081;28;20036;-72
2020/12/14 10:58:43;;;;;;;15.02;12.63;;;27.20;48.00;;;;;;5083581;28;20043;-76
2020/12/14 11:01:12;;;;;;;15.95;12.68;;;27.20;48.10;;;;;;5080942;28;20028;-72
2020/12/14 11:03:38;;;;;;;14.95;13.32;;;27.20;48.30;;;;;;5081181;28;20047;-72
2020/12/14 11:06:05;;;;;;;14.32;11.48;;;27.10;48.30;;;;;;5049606;28;20031;-72
2020/12/14 11:08:32;;;;;;;14.80;12.10;;;27.20;48.50;;;;;;5084221;28;20046;-72
2020/12/14 11:10:59;;;;;;;14.60;11.68;;;27.10;48.30;;;;;;5081349;28;20031;-72
2020/12/14 11:13:26;;;;;;;14.85;12.13;;;27.10;48.50;;;;;;5081064;28;20036;-72
2020/12/14 11:15:54;;;;;;;16.52;11.10;;;27.10;48.40;;;;;;5076879;28;20044;-72
2020/12/14 11:18:23;;;;;;;13.07;10.00;;;27.10;48.50;;;;;;5083387;28;20052;-72
2020/12/14 11:20:50;;;;;;;14.15;10.40;;;27.00;48.80;;;;;;5079718;28;20465;-72
2020/12/14 11:23:17;;;;;;;14.20;12.02;;;27.00;48.70;;;;;;5084430;28;20431;-72
2020/12/14 11:25:44;;;;;;;13.60;10.80;;;27.00;48.70;;;;;;5078498;28;20020;-72
2020/12/14 11:28:11;;;;;;;13.88;10.82;;;27.00;48.60;;;;;;5082750;28;20028;-72
2020/12/14 11:30:41;;;;;;;12.48;10.10;;;27.00;48.70;;;;;;5083467;28;20027;-71
2020/12/14 11:33:08;;;;;;;14.05;10.68;;;27.00;49.00;;;;;;5080180;28;20111;-72
2020/12/14 11:35:35;;;;;;;14.80;10.52;;;27.00;49.00;;;;;;5081844;28;20051;-74
2020/12/14 11:38:02;;;;;;;13.10;10.50;;;27.00;49.20;;;;;;5075164;28;20032;-72
2020/12/14 11:40:29;;;;;;;12.60;10.05;;;27.00;49.10;;;;;;5065512;28;20055;-72
2020/12/14 11:42:56;;;;;;;13.02;10.02;;;27.00;49.20;;;;;;5082138;28;20028;-71
2020/12/14 11:45:23;;;;;;;13.00;9.70;;;26.90;49.20;;;;;;5083304;28;20032;-71
2020/12/14 11:47:50;;;;;;;13.90;9.40;;;26.90;49.20;;;;;;5080835;28;20030;-71
2020/12/14 11:50:17;;;;;;;11.10;9.82;;;26.90;49.30;;;;;;5083421;28;20050;-71
2020/12/14 11:52:46;;;;;;;10.13;9.00;;;26.90;49.30;;;;;;5080229;28;20024;-71
2020/12/14 11:55:14;;;;;;;13.85;9.43;;;26.90;49.40;;;;;;5080505;28;20034;-71
2020/12/14 11:57:41;;;;;;;12.75;8.70;;;26.90;49.40;;;;;;5082697;28;20511;-70
2020/12/14 12:00:10;;;;;;;14.02;9.65;;;26.90;49.60;;;;;;5079842;28;20032;-71
2020/12/14 12:02:37;;;;;;;11.85;8.25;;;26.80;49.40;;;;;;5079616;28;20061;-70
2020/12/14 12:05:04;;;;;;;9.70;8.70;;;26.80;49.50;;;;;;5085094;28;20039;-71
2020/12/14 12:07:31;;;;;;;12.52;9.18;;;26.80;49.70;;;;;;5060462;28;20039;-72
2020/12/14 12:09:58;;;;;;;10.93;8.23;;;26.70;49.80;;;;;;5055238;28;20028;-70
2020/12/14 12:12:25;;;;;;;10.30;8.60;;;26.70;49.90;;;;;;5083817;28;20505;-70
2020/12/14 12:14:52;;;;;;;10.65;8.43;;;26.70;49.80;;;;;;5080563;28;20036;-71
2020/12/14 12:17:22;;;;;;;8.77;7.85;;;26.70;49.90;;;;;;5080747;28;20121;-70
2020/12/14 12:19:49;;;;;;;9.18;7.60;;;26.70;50.00;;;;;;5079675;28;20020;-69
2020/12/14 12:22:17;;;;;;;9.57;8.10;;;26.70;50.30;;;;;;5047858;28;20116;-75
2020/12/14 12:24:44;;;;;;;9.60;8.07;;;26.40;49.00;;;;;;5072138;28;20063;-69
2020/12/14 12:27:11;;;;;;;8.57;7.40;;;26.20;51.50;;;;;;5076728;28;20024;-70
2020/12/14 12:29:38;;;;;;;9.07;7.10;;;26.40;51.60;;;;;;5074000;28;20127;-65
2020/12/14 12:32:05;;;;;;;8.10;7.00;;;26.40;51.30;;;;;;5078082;28;20051;-71
2020/12/14 12:34:33;;;;;;;9.15;7.45;;;26.10;50.90;;;;;;5077177;28;20502;-68
2020/12/14 12:37:01;;;;;;;8.18;6.53;;;25.90;52.20;;;;;;5081007;28;20066;-63
2020/12/14 12:40:21;;;;;;;16.48;7.70;;;25.80;51.60;;;;;;5102182;27;20162;-63
2020/12/14 12:42:48;;;;;;;10.43;7.20;;;26.10;53.60;;;;;;5086284;27;20161;-64
2020/12/14 12:45:15;;;;;;;11.27;7.10;;;26.30;53.10;;;;;;5078180;28;20464;-66
2020/12/14 12:47:42;;;;;;;10.00;6.45;;;26.40;52.80;;;;;;5075036;27;20035;-64
2020/12/14 12:50:10;;;;;;;9.30;6.40;;;26.50;51.10;;;;;;5069030;28;20040;-68